Time;durP1;ratioP1;P1;durP2;ratioP2;P2;SDS_P1;SDS_P2;PMS_P1;PMS_P2;Temp;Humidity;BMP_temperature;BMP_pressure;BME280_temperature;BME280_humidity;BME280_pressure;Samples;Min_cycle;Max_cycle;Signal;HPM_P1;HPM_P2
2023/12/30 00:00:25;;;;;;;2.38;0.60;;;;;;;6.04;97.37;100624.66;7400878;19;19923;-71
2023/12/30 00:02:54;;;;;;;2.67;0.35;;;;;;;6.04;97.28;100608.59;7401246;19;19934;-71
2023/12/30 00:05:24;;;;;;;1.38;0.45;;;;;;;6.02;97.23;100622.09;7401784;19;19942;-71
2023/12/30 00:07:55;;;;;;;2.58;0.20;;;;;;;6.00;97.47;100626.75;7402037;19;19918;-71
2023/12/30 00:10:23;;;;;;;4.15;0.80;;;;;;;5.98;97.26;100609.19;7401640;19;19922;-71
2023/12/30 00:12:52;;;;;;;3.13;0.90;;;;;;;5.97;97.23;100612.88;7402153;19;19918;-71
2023/12/30 00:15:41;;;;;;;5.25;0.63;;;;;;;5.97;97.59;100618.22;7399211;19;19925;-71
2023/12/30 00:18:09;;;;;;;1.55;0.70;;;;;;;5.96;97.76;100617.38;7401250;19;19984;-71
2023/12/30 00:20:38;;;;;;;5.63;0.70;;;;;;;5.95;97.94;100614.88;7401481;19;19974;-71
2023/12/30 00:23:09;;;;;;;2.15;0.55;;;;;;;5.90;97.90;100621.50;7400986;19;20359;-71
2023/12/30 00:25:38;;;;;;;6.72;0.70;;;;;;;5.85;98.40;100612.22;7401364;19;19926;-71
2023/12/30 00:28:08;;;;;;;3.95;0.85;;;;;;;5.80;98.79;100617.19;7402360;19;19921;-71
2023/12/30 00:30:37;;;;;;;9.20;0.90;;;;;;;5.77;98.95;100615.69;7401345;19;20355;-71
2023/12/30 00:33:06;;;;;;;6.68;0.85;;;;;;;5.76;99.20;100624.69;7401648;19;19914;-72
2023/12/30 00:35:34;;;;;;;3.63;0.80;;;;;;;5.76;98.81;100621.16;7401393;19;20256;-71
2023/12/30 00:38:03;;;;;;;7.13;0.90;;;;;;;5.76;98.91;100629.19;7400356;19;19932;-72
2023/12/30 00:40:35;;;;;;;3.42;0.90;;;;;;;5.77;99.19;100638.88;7401313;19;19919;-71
2023/12/30 00:43:04;;;;;;;4.25;0.80;;;;;;;5.77;98.98;100642.41;7398321;19;19934;-71
2023/12/30 00:45:32;;;;;;;8.77;0.70;;;;;;;5.79;98.90;100645.75;7401560;19;19930;-71
2023/12/30 00:48:01;;;;;;;6.68;1.27;;;;;;;5.81;98.81;100642.94;7400229;19;19928;-71
2023/12/30 00:50:30;;;;;;;6.50;1.05;;;;;;;5.85;98.43;100639.81;7401251;19;19985;-71
2023/12/30 00:52:58;;;;;;;1.52;0.60;;;;;;;5.87;98.43;100642.34;7400681;19;19918;-71
2023/12/30 00:55:27;;;;;;;3.50;0.60;;;;;;;5.88;98.08;100639.53;7401103;19;19914;-71
2023/12/30 00:57:58;;;;;;;5.28;0.82;;;;;;;5.91;97.77;100646.41;7400143;19;20011;-71
2023/12/30 01:00:27;;;;;;;6.93;0.65;;;;;;;5.91;97.67;100641.88;7399783;19;20353;-71
2023/12/30 01:03:15;;;;;;;6.13;1.00;;;;;;;5.92;97.49;100640.91;7398767;19;19915;-71
2023/12/30 01:05:44;;;;;;;3.20;1.45;;;;;;;5.90;97.48;100650.91;7399929;19;19935;-71
2023/12/30 01:08:13;;;;;;;6.18;0.82;;;;;;;5.91;97.24;100643.75;7401067;19;19914;-71
2023/12/30 01:10:42;;;;;;;5.55;0.90;;;;;;;5.89;97.18;100654.59;7399812;19;19942;-71
2023/12/30 01:13:13;;;;;;;3.63;0.70;;;;;;;5.91;96.99;100651.75;7399782;19;19918;-71
2023/12/30 01:15:42;;;;;;;4.50;0.80;;;;;;;5.90;97.23;100660.78;7399486;19;20292;-71
2023/12/30 01:18:11;;;;;;;6.72;1.58;;;;;;;5.87;97.43;100661.91;7399917;19;19923;-71
2023/12/30 01:20:39;;;;;;;2.78;0.60;;;;;;;5.90;97.51;100668.78;7399553;19;20349;-71
2023/12/30 01:23:08;;;;;;;6.03;0.95;;;;;;;5.91;97.86;100663.28;7400386;19;19922;-71
2023/12/30 01:25:38;;;;;;;4.10;0.80;;;;;;;5.90;97.87;100669.63;7399747;19;19918;-71
2023/12/30 01:28:08;;;;;;;6.72;0.95;;;;;;;5.90;97.66;100666.97;7398695;19;19926;-71
2023/12/30 01:30:40;;;;;;;4.18;1.17;;;;;;;5.91;97.49;100670.47;7399906;19;19919;-71
2023/12/30 01:33:09;;;;;;;4.72;0.93;;;;;;;5.91;97.30;100665.94;7399568;19;19958;-72
2023/12/30 01:35:37;;;;;;;6.78;0.95;;;;;;;5.92;97.20;100666.78;7398926;19;19943;-71
2023/12/30 01:38:06;;;;;;;2.25;0.60;;;;;;;5.91;96.82;100668.63;7399238;19;19922;-72
2023/12/30 01:40:35;;;;;;;4.85;0.98;;;;;;;5.91;96.55;100667.81;7398868;19;20349;-72
2023/12/30 01:43:05;;;;;;;6.80;1.30;;;;;;;5.89;96.55;100669.78;7397843;19;19938;-71
2023/12/30 01:45:34;;;;;;;5.63;0.88;;;;;;;5.87;96.23;100675.25;7398982;19;19929;-71
2023/12/30 01:48:06;;;;;;;5.57;1.20;;;;;;;5.88;95.92;100673.44;7398327;19;19915;-71
2023/12/30 01:50:57;;;;;;;8.10;0.73;;;;;;;5.87;95.71;100666.41;7396871;19;19922;-71
2023/12/30 01:53:27;;;;;;;2.78;0.50;;;;;;;5.90;95.81;100680.34;7400366;19;19918;-71
2023/12/30 01:55:56;;;;;;;3.70;0.80;;;;;;;5.89;95.49;100672.44;7400263;19;19922;-72
2023/12/30 01:58:26;;;;;;;5.25;0.80;;;;;;;5.89;95.31;100667.09;7404351;19;19919;-71
2023/12/30 02:00:56;;;;;;;3.90;0.90;;;;;;;5.87;95.33;100669.91;7403657;19;19922;-71
2023/12/30 02:03:27;;;;;;;4.47;1.13;;;;;;;5.87;95.11;100663.72;7405083;19;19954;-71
2023/12/30 02:05:56;;;;;;;7.38;0.98;;;;;;;5.86;95.11;100665.59;7404118;19;19938;-71
2023/12/30 02:08:26;;;;;;;3.70;0.95;;;;;;;5.87;94.82;100682.44;7403780;19;19914;-71
2023/12/30 02:10:55;;;;;;;3.25;0.70;;;;;;;5.87;94.59;100671.75;7404468;19;19914;-71
2023/12/30 02:13:23;;;;;;;4.68;0.52;;;;;;;5.87;94.64;100669.06;7404545;19;19925;-71
2023/12/30 02:16:12;;;;;;;3.97;0.98;;;;;;;5.86;94.28;100670.94;7401139;19;19933;-71
2023/12/30 02:18:43;;;;;;;4.78;1.15;;;;;;;5.87;94.03;100698.47;7403718;19;19919;-71
2023/12/30 02:21:12;;;;;;;4.28;0.80;;;;;;;5.92;93.76;100685.50;7403175;19;19923;-72
2023/12/30 02:23:43;;;;;;;9.65;1.10;;;;;;;5.96;93.71;100694.91;7404004;19;19922;-71
2023/12/30 02:26:11;;;;;;;4.07;0.85;;;;;;;5.97;93.80;100677.88;7403269;19;19919;-71
2023/12/30 02:28:40;;;;;;;3.88;0.60;;;;;;;5.99;93.31;100688.44;7403813;19;20159;-71
2023/12/30 02:31:08;;;;;;;7.40;1.15;;;;;;;6.01;93.52;100702.47;7403861;19;20450;-72
2023/12/30 02:33:37;;;;;;;10.93;1.17;;;;;;;6.03;92.91;100698.66;7403020;19;19942;-72
2023/12/30 02:36:07;;;;;;;3.53;1.30;;;;;;;6.07;92.32;100713.41;7404465;19;19910;-71
2023/12/30 02:38:36;;;;;;;5.80;0.90;;;;;;;6.10;91.91;100697.06;7404131;19;19915;-71
2023/12/30 02:41:08;;;;;;;5.00;0.73;;;;;;;6.12;91.19;100703.09;7402596;19;19923;-71
2023/12/30 02:43:46;;;;;;;4.70;1.27;;;;;;;6.19;90.96;100714.03;7403002;19;19915;-71
2023/12/30 02:46:15;;;;;;;4.70;0.68;;;;;;;6.19;90.59;100704.16;7403650;19;19921;-72
2023/12/30 02:48:44;;;;;;;7.22;0.73;;;;;;;6.24;90.67;100717.09;7403812;19;19935;-71
2023/12/30 02:51:16;;;;;;;1.27;0.50;;;;;;;6.27;89.76;100725.63;7403578;19;19950;-72
2023/12/30 02:53:45;;;;;;;6.72;0.52;;;;;;;6.28;89.93;100703.25;7403108;19;19923;-71
2023/12/30 02:56:23;;;;;;;4.88;0.95;;;;;;;6.30;89.78;100714.63;7403112;19;19929;-72
2023/12/30 02:58:55;;;;;;;5.53;1.00;;;;;;;6.34;89.69;100720.53;7403322;19;19918;-71
2023/12/30 03:01:27;;;;;;;5.03;0.50;;;;;;;6.34;89.85;100724.03;7402760;19;19998;-72
2023/12/30 03:03:57;;;;;;;3.88;0.70;;;;;;;6.36;89.68;100726.56;7403194;19;19918;-71
2023/12/30 03:06:26;;;;;;;6.32;0.70;;;;;;;6.36;89.65;100721.22;7402269;19;19929;-71
2023/12/30 03:08:55;;;;;;;5.18;0.68;;;;;;;6.41;89.44;100726.94;7402992;19;20360;-71
2023/12/30 03:11:26;;;;;;;3.60;1.27;;;;;;;6.42;88.99;100728.63;7403104;19;20379;-72
2023/12/30 03:13:55;;;;;;;9.40;0.80;;;;;;;6.45;89.07;100739.00;7402417;19;19918;-72
2023/12/30 03:16:23;;;;;;;5.70;0.77;;;;;;;6.48;88.82;100732.50;7402710;19;19926;-71
2023/12/30 03:18:52;;;;;;;3.75;0.98;;;;;;;6.48;88.37;100741.38;7402330;19;19919;-72
2023/12/30 03:21:21;;;;;;;7.50;1.85;;;;;;;6.50;88.73;100746.59;7403268;19;19937;-72
2023/12/30 03:24:09;;;;;;;10.77;1.77;;;;;;;6.51;88.47;100756.31;7399643;19;19919;-71
2023/12/30 03:26:41;;;;;;;4.93;0.75;;;;;;;6.51;88.69;100750.94;7402191;19;20257;-71
2023/12/30 03:29:09;;;;;;;4.32;0.85;;;;;;;6.51;88.16;100767.00;7402933;19;19942;-72
2023/12/30 03:31:38;;;;;;;8.65;1.23;;;;;;;6.53;88.37;100754.28;7402082;19;19919;-72
2023/12/30 03:34:06;;;;;;;8.27;0.73;;;;;;;6.49;88.61;100756.44;7402923;19;20317;-71
2023/12/30 03:36:35;;;;;;;8.07;0.80;;;;;;;6.50;88.69;100751.94;7402299;19;19926;-72
2023/12/30 03:39:04;;;;;;;6.25;0.90;;;;;;;6.53;88.36;100762.31;7402306;19;19922;-71
2023/12/30 03:41:33;;;;;;;7.93;0.70;;;;;;;6.55;87.73;100761.19;7402139;19;19919;-72
2023/12/30 03:44:04;;;;;;;5.38;0.80;;;;;;;6.59;88.11;100759.03;7401911;19;19952;-72
2023/12/30 03:46:33;;;;;;;7.43;1.75;;;;;;;6.56;87.86;100752.16;7402326;19;19942;-72
2023/12/30 03:49:01;;;;;;;4.68;0.90;;;;;;;6.59;87.82;100775.09;7402429;19;19919;-71
2023/12/30 03:51:30;;;;;;;5.05;1.40;;;;;;;6.55;88.15;100761.19;7400895;19;19954;-72
2023/12/30 03:53:58;;;;;;;8.40;1.08;;;;;;;6.57;87.61;100761.03;7402417;19;19914;-72
2023/12/30 03:56:27;;;;;;;8.50;1.95;;;;;;;6.58;87.77;100774.25;7402535;19;19926;-72
2023/12/30 03:58:59;;;;;;;8.13;0.80;;;;;;;6.59;87.73;100764.41;7402140;19;19915;-72
2023/12/30 04:01:30;;;;;;;6.53;0.65;;;;;;;6.58;87.81;100766.22;7401324;19;19952;-72
2023/12/30 04:03:59;;;;;;;7.88;1.05;;;;;;;6.56;87.88;100757.50;7401562;19;20012;-71
2023/12/30 04:06:27;;;;;;;5.93;0.70;;;;;;;6.57;87.23;100747.63;7400764;19;19927;-71
2023/12/30 04:09:16;;;;;;;2.95;0.60;;;;;;;6.55;87.61;100763.03;7400444;19;19914;-71
2023/12/30 04:11:44;;;;;;;3.83;0.75;;;;;;;6.52;87.66;100758.81;7401631;19;19919;-71
2023/12/30 04:14:13;;;;;;;6.55;0.77;;;;;;;6.51;87.25;100775.03;7401367;19;20364;-71
2023/12/30 04:16:44;;;;;;;5.38;0.90;;;;;;;6.49;87.20;100761.78;7401830;19;19942;-71
2023/12/30 04:19:13;;;;;;;4.75;1.17;;;;;;;6.44;87.54;100766.75;7399431;19;19958;-71
2023/12/30 04:21:41;;;;;;;7.72;1.30;;;;;;;6.41;87.32;100768.91;7401555;19;19915;-71
2023/12/30 04:24:10;;;;;;;9.60;1.30;;;;;;;6.35;87.38;100781.06;7400487;19;19918;-71
2023/12/30 04:26:38;;;;;;;6.28;0.70;;;;;;;6.32;87.27;100784.88;7401635;19;20643;-71
2023/12/30 04:29:28;;;;;;;9.70;0.93;;;;;;;6.31;86.90;100769.81;7399711;19;19918;-71
2023/12/30 04:32:00;;;;;;;6.03;1.15;;;;;;;6.28;87.33;100780.84;7400805;19;19918;-71
2023/12/30 04:34:28;;;;;;;6.00;1.10;;;;;;;6.22;87.40;100784.09;7402202;19;19918;-71
2023/12/30 04:36:57;;;;;;;8.77;1.75;;;;;;;6.19;87.37;100781.72;7400846;19;19929;-71
2023/12/30 04:39:25;;;;;;;5.38;1.08;;;;;;;6.16;87.62;100787.41;7401916;19;19982;-72
2023/12/30 04:41:55;;;;;;;5.75;1.63;;;;;;;6.15;87.93;100784.84;7400578;19;19919;-72
2023/12/30 04:44:23;;;;;;;8.88;1.10;;;;;;;6.13;87.64;100776.97;7401228;19;19918;-71
2023/12/30 04:46:52;;;;;;;5.28;1.15;;;;;;;6.10;87.64;100787.97;7401059;19;19918;-72
2023/12/30 04:49:23;;;;;;;12.32;1.05;;;;;;;6.08;87.96;100800.69;7400054;19;19915;-71
2023/12/30 04:51:52;;;;;;;4.72;0.75;;;;;;;6.07;87.81;100808.84;7400960;19;19922;-71
2023/12/30 04:54:20;;;;;;;5.30;1.23;;;;;;;6.10;87.62;100809.38;7400783;19;19946;-71
2023/12/30 04:56:49;;;;;;;7.53;0.73;;;;;;;6.13;87.64;100803.72;7401484;19;19918;-71
2023/12/30 04:59:38;;;;;;;3.80;0.70;;;;;;;6.15;87.42;100801.75;7398789;19;20264;-70
2023/12/30 05:02:06;;;;;;;4.38;0.57;;;;;;;6.20;87.30;100818.19;7400406;19;19914;-70
2023/12/30 05:04:58;;;;;;;10.05;0.90;;;;;;;6.22;87.02;100815.34;7398314;19;19990;-70
2023/12/30 05:07:27;;;;;;;6.20;1.08;;;;;;;6.25;86.89;100829.28;7400871;19;19975;-70
2023/12/30 05:09:56;;;;;;;5.30;1.05;;;;;;;6.26;87.05;100814.91;7400396;19;19922;-71
2023/12/30 05:12:25;;;;;;;7.57;0.55;;;;;;;6.27;87.10;100816.59;7399755;19;20333;-70
2023/12/30 05:14:53;;;;;;;4.82;0.70;;;;;;;6.28;86.64;100849.53;7401002;19;19922;-71
2023/12/30 05:17:23;;;;;;;7.03;0.80;;;;;;;6.29;86.61;100819.97;7400175;19;20272;-71
2023/12/30 05:19:51;;;;;;;7.47;1.20;;;;;;;6.28;86.73;100820.97;7399908;19;19938;-71
2023/12/30 05:22:22;;;;;;;3.30;0.75;;;;;;;6.26;86.77;100822.94;7399810;19;19951;-71
2023/12/30 05:24:51;;;;;;;5.82;0.95;;;;;;;6.26;86.88;100832.78;7399785;19;20328;-71
2023/12/30 05:27:20;;;;;;;3.10;0.93;;;;;;;6.27;86.96;100829.97;7400680;19;19926;-71
2023/12/30 05:29:48;;;;;;;5.22;1.02;;;;;;;6.21;87.44;100830.56;7400186;19;19922;-71
2023/12/30 05:32:17;;;;;;;6.70;0.73;;;;;;;6.22;87.30;100834.06;7399304;19;19922;-71
2023/12/30 05:34:46;;;;;;;3.25;1.10;;;;;;;6.20;87.34;100836.91;7399041;19;20023;-71
2023/12/30 05:37:15;;;;;;;8.60;1.55;;;;;;;6.24;87.31;100837.47;7399718;19;19922;-72
2023/12/30 05:39:46;;;;;;;5.20;0.93;;;;;;;6.25;87.34;100839.16;7400002;19;19914;-71
2023/12/30 05:42:15;;;;;;;;;;;;;;;6.18;87.49;100846.91;7401700;19;19933;-71
2023/12/30 05:44:44;;;;;;;7.20;1.05;;;;;;;6.23;87.52;100835.75;7398415;19;19919;-71
2023/12/30 05:47:13;;;;;;;2.58;0.68;;;;;;;6.21;87.66;100838.56;7399306;19;19948;-70
2023/12/30 05:49:42;;;;;;;7.88;1.30;;;;;;;6.21;88.01;100849.28;7398854;19;19915;-71
2023/12/30 05:52:11;;;;;;;7.13;0.95;;;;;;;6.21;87.89;100857.31;7399408;19;19932;-71
2023/12/30 05:54:39;;;;;;;7.38;1.17;;;;;;;6.17;87.85;100855.09;7398264;19;19986;-71
2023/12/30 05:57:10;;;;;;;7.18;1.27;;;;;;;6.14;87.86;100853.56;7398838;19;19923;-71
2023/12/30 05:59:40;;;;;;;7.28;0.80;;;;;;;6.10;88.11;100854.84;7397811;19;19942;-71
2023/12/30 06:02:09;;;;;;;3.33;0.95;;;;;;;6.08;88.31;100864.88;7398186;19;19922;-70
2023/12/30 06:04:42;;;;;;;8.32;1.27;;;;;;;6.08;88.17;100858.66;7398478;19;19931;-70
2023/12/30 06:07:11;;;;;;;6.93;0.75;;;;;;;6.05;88.15;100866.97;7398485;19;19985;-71
2023/12/30 06:09:39;;;;;;;10.20;2.40;;;;;;;6.06;88.21;100866.81;7398341;19;19934;-70
2023/12/30 06:12:11;;;;;;;8.13;1.15;;;;;;;6.10;88.30;100862.03;7398528;19;20485;-70
2023/12/30 06:15:00;;;;;;;7.07;0.80;;;;;;;6.09;88.12;100871.88;7396171;19;19922;-71
2023/12/30 06:17:29;;;;;;;3.22;0.68;;;;;;;6.13;88.19;100867.91;7398010;19;19929;-70
2023/12/30 06:19:58;;;;;;;8.40;1.52;;;;;;;6.16;88.19;100875.66;7397498;19;19942;-70
2023/12/30 06:22:27;;;;;;;9.55;2.63;;;;;;;6.17;88.64;100887.19;7397683;19;19922;-71
2023/12/30 06:24:56;;;;;;;6.03;1.00;;;;;;;6.16;88.88;100878.34;7396906;19;19922;-71
2023/12/30 06:27:27;;;;;;;9.38;1.17;;;;;;;6.18;89.08;100872.81;7397955;19;19923;-70
2023/12/30 06:29:55;;;;;;;8.15;1.60;;;;;;;6.14;89.11;100880.28;7397371;19;20244;-70
2023/12/30 06:32:24;;;;;;;5.55;1.33;;;;;;;6.14;89.29;100880.28;7396798;19;19942;-71
2023/12/30 06:34:52;;;;;;;7.55;1.23;;;;;;;6.15;89.50;100887.34;7396832;19;19926;-71
2023/12/30 06:37:21;;;;;;;12.98;1.38;;;;;;;6.14;89.35;100885.66;7397654;19;19922;-71
2023/12/30 06:39:50;;;;;;;6.03;1.25;;;;;;;6.16;89.28;100905.06;7397129;19;19926;-71
2023/12/30 06:42:19;;;;;;;7.10;1.00;;;;;;;6.17;89.47;100890.69;7400672;19;20576;-71
2023/12/30 06:44:51;;;;;;;8.63;1.63;;;;;;;6.16;89.47;100881.00;7404047;19;19911;-70
2023/12/30 06:47:19;;;;;;;5.93;1.17;;;;;;;6.15;89.49;100883.81;7403680;19;19918;-70
2023/12/30 06:49:48;;;;;;;6.18;0.80;;;;;;;6.17;89.09;100890.69;7402795;19;19919;-71
2023/12/30 06:52:16;;;;;;;6.15;0.88;;;;;;;6.16;89.22;100889.03;7403654;19;19922;-71
2023/12/30 06:54:45;;;;;;;2.90;0.70;;;;;;;6.16;89.38;100883.69;7402785;19;20372;-71
2023/12/30 06:57:14;;;;;;;4.55;1.20;;;;;;;6.16;89.20;100891.72;7403372;19;19918;-70
2023/12/30 06:59:42;;;;;;;4.57;0.90;;;;;;;6.17;89.35;100889.88;7403527;19;19915;-71
2023/12/30 07:02:13;;;;;;;6.35;1.33;;;;;;;6.13;89.51;100902.69;7402815;19;19930;-71
2023/12/30 07:04:42;;;;;;;6.78;1.27;;;;;;;6.12;89.63;100902.84;7403182;19;19922;-70
2023/12/30 07:07:11;;;;;;;5.68;1.35;;;;;;;6.11;89.79;100906.50;7402719;19;19925;-71
2023/12/30 07:09:41;;;;;;;5.65;0.88;;;;;;;6.09;89.90;100911.16;7403701;19;19938;-70
2023/12/30 07:12:12;;;;;;;6.97;0.80;;;;;;;6.07;89.78;100919.34;7402604;19;19949;-71
2023/12/30 07:14:41;;;;;;;7.95;1.05;;;;;;;6.06;89.87;100947.06;7403296;19;19922;-70
2023/12/30 07:17:09;;;;;;;10.90;1.10;;;;;;;6.03;90.22;100946.50;7403126;19;19915;-70
2023/12/30 07:19:41;;;;;;;9.52;1.60;;;;;;;6.01;90.34;100940.44;7402807;19;19918;-71
2023/12/30 07:22:09;;;;;;;7.38;0.98;;;;;;;5.98;90.64;100957.66;7403492;19;19927;-71
2023/12/30 07:24:39;;;;;;;6.20;0.93;;;;;;;5.94;90.77;100956.25;7402522;19;19926;-71
2023/12/30 07:27:08;;;;;;;7.70;1.10;;;;;;;5.92;90.81;100966.22;7401770;19;19929;-70
2023/12/30 07:29:36;;;;;;;8.68;1.10;;;;;;;5.89;90.96;100956.69;7402299;19;19922;-71
2023/12/30 07:32:05;;;;;;;6.47;1.10;;;;;;;5.90;90.92;100960.19;7401406;19;19929;-71
2023/12/30 07:34:34;;;;;;;5.93;1.27;;;;;;;5.88;90.97;100973.69;7403294;19;19926;-70
2023/12/30 07:37:06;;;;;;;16.42;1.40;;;;;;;5.87;91.22;100964.00;7402400;19;19954;-71
2023/12/30 07:39:35;;;;;;;12.30;1.35;;;;;;;5.85;91.43;100971.28;7401928;19;19911;-71
2023/12/30 07:42:03;;;;;;;9.40;1.13;;;;;;;5.86;91.43;100974.81;7402075;19;19939;-71
2023/12/30 07:44:37;;;;;;;7.50;1.33;;;;;;;5.85;91.45;100992.69;7402118;19;19927;-71
2023/12/30 07:47:06;;;;;;;7.18;0.93;;;;;;;5.87;91.29;100995.22;7402518;19;19922;-71
2023/12/30 07:49:35;;;;;;;7.28;1.23;;;;;;;5.87;91.34;100989.88;7401643;19;20329;-71
2023/12/30 07:52:07;;;;;;;9.43;1.40;;;;;;;5.87;91.41;101000.56;7401432;19;19925;-71
2023/12/30 07:54:36;;;;;;;9.32;1.27;;;;;;;5.88;91.20;101011.13;7399699;19;19923;-70
2023/12/30 07:57:05;;;;;;;7.88;1.35;;;;;;;5.90;91.41;101008.31;7402605;19;19918;-71
2023/12/30 07:59:33;;;;;;;6.78;1.13;;;;;;;5.91;91.27;101007.34;7401905;19;20587;-71
2023/12/30 08:02:02;;;;;;;5.90;1.10;;;;;;;5.95;91.19;101021.28;7401462;19;20387;-71
2023/12/30 08:04:31;;;;;;;6.60;0.85;;;;;;;5.96;91.03;101015.75;7401819;19;19919;-71
2023/12/30 08:06:59;;;;;;;5.82;1.35;;;;;;;5.97;91.02;101021.94;7402951;19;19914;-71
2023/12/30 08:09:30;;;;;;;9.60;1.38;;;;;;;5.98;90.81;101016.47;7402384;19;19918;-71
2023/12/30 08:11:59;;;;;;;15.13;1.65;;;;;;;5.98;91.03;101012.94;7402420;19;20018;-72
2023/12/30 08:14:28;;;;;;;6.38;0.95;;;;;;;6.01;90.70;101021.53;7400920;19;19922;-71
2023/12/30 08:16:58;;;;;;;6.65;0.80;;;;;;;6.02;90.48;101030.38;7401579;19;19911;-71
2023/12/30 08:19:27;;;;;;;7.45;1.00;;;;;;;6.05;90.14;101032.78;7401775;19;19914;-71
2023/12/30 08:21:55;;;;;;;7.80;1.10;;;;;;;6.08;90.03;101043.19;7401715;19;19928;-71
2023/12/30 08:24:28;;;;;;;7.85;1.10;;;;;;;6.10;90.14;101054.59;7401533;19;19910;-71
2023/12/30 08:26:58;;;;;;;;;;;;;;;6.09;89.91;101058.25;7403769;19;20280;-71
2023/12/30 08:29:27;;;;;;;8.13;1.05;;;;;;;6.14;90.21;101072.88;7401659;19;19933;-71
2023/12/30 08:31:56;;;;;;;6.63;1.02;;;;;;;6.17;90.18;101069.91;7401007;19;19922;-72
2023/12/30 08:34:27;;;;;;;5.80;1.17;;;;;;;6.19;90.02;101081.31;7401345;19;19911;-72
2023/12/30 08:36:56;;;;;;;7.10;1.13;;;;;;;6.19;90.10;101075.97;7401415;19;19959;-71
2023/12/30 08:39:25;;;;;;;7.78;1.10;;;;;;;6.23;90.29;101084.53;7400701;19;19919;-72
2023/12/30 08:41:53;;;;;;;19.85;1.63;;;;;;;6.20;90.36;101083.00;7401189;19;19943;-72
2023/12/30 08:44:26;;;;;;;3.80;0.80;;;;;;;6.21;90.30;101092.69;7401598;19;20348;-72
2023/12/30 08:46:56;;;;;;;6.13;1.00;;;;;;;6.21;90.51;101091.88;7400715;19;19926;-71
2023/12/30 08:49:24;;;;;;;7.15;1.25;;;;;;;6.21;90.48;101094.56;7400653;19;19915;-71
2023/12/30 08:52:13;;;;;;;4.47;0.98;;;;;;;6.23;90.60;101103.28;7399822;19;19923;-72
2023/12/30 08:54:42;;;;;;;5.93;1.13;;;;;;;6.24;90.65;101107.63;7401222;19;19939;-71
2023/12/30 08:57:10;;;;;;;8.32;1.58;;;;;;;6.21;90.56;101092.69;7399392;19;19918;-71
2023/12/30 08:59:41;;;;;;;8.80;1.23;;;;;;;6.20;90.68;101099.06;7400582;19;20002;-71
2023/12/30 09:02:10;;;;;;;6.03;1.00;;;;;;;6.19;90.60;101099.19;7400826;19;19922;-72
2023/12/30 09:04:39;;;;;;;6.72;0.90;;;;;;;6.16;90.93;101095.00;7399709;19;19918;-71
2023/12/30 09:07:07;;;;;;;5.55;1.10;;;;;;;6.15;90.88;101101.31;7400770;19;19922;-72
2023/12/30 09:09:36;;;;;;;10.32;1.48;;;;;;;6.11;91.12;101107.09;7400864;19;19925;-72
2023/12/30 09:12:05;;;;;;;8.52;1.17;;;;;;;6.09;91.36;101099.19;7400051;19;20352;-71
2023/12/30 09:14:34;;;;;;;5.78;1.10;;;;;;;6.08;91.66;101099.38;7399858;19;19935;-72
2023/12/30 09:17:05;;;;;;;6.20;1.35;;;;;;;6.07;91.69;101101.19;7400903;19;19914;-71
2023/12/30 09:19:33;;;;;;;5.47;1.00;;;;;;;6.06;91.87;101091.47;7401128;19;19922;-72
2023/12/30 09:22:02;;;;;;;6.00;1.05;;;;;;;6.07;91.79;101103.88;7400457;19;19945;-72
2023/12/30 09:24:31;;;;;;;8.20;1.27;;;;;;;6.07;92.30;101105.69;7399832;19;19923;-72
2023/12/30 09:26:59;;;;;;;6.57;1.50;;;;;;;6.05;92.13;101113.00;7400235;19;19914;-72
2023/12/30 09:29:28;;;;;;;6.90;1.20;;;;;;;6.04;92.12;101111.34;7400525;19;19918;-71
2023/12/30 09:31:57;;;;;;;5.80;0.80;;;;;;;6.03;92.33;101115.84;7400173;19;19942;-71
2023/12/30 09:34:28;;;;;;;5.57;1.13;;;;;;;6.03;92.36;101117.66;7400132;19;19940;-71
2023/12/30 09:36:57;;;;;;;8.35;1.00;;;;;;;6.01;92.42;101112.44;7399433;19;19923;-71
2023/12/30 09:39:26;;;;;;;7.10;1.10;;;;;;;6.01;92.35;101114.28;7399869;19;19938;-71
2023/12/30 09:41:55;;;;;;;3.33;0.93;;;;;;;6.01;92.34;101117.78;7399806;19;20291;-71
2023/12/30 09:44:25;;;;;;;4.47;0.80;;;;;;;6.03;92.36;101123.00;7398650;19;19927;-71
2023/12/30 09:46:55;;;;;;;6.40;1.10;;;;;;;6.03;92.37;101126.53;7399334;19;19974;-71
2023/12/30 09:49:25;;;;;;;4.75;1.13;;;;;;;6.06;92.31;101133.41;7398948;19;19922;-71
2023/12/30 09:51:57;;;;;;;8.60;1.20;;;;;;;6.08;92.40;101134.97;7399579;19;19922;-71
2023/12/30 09:54:27;;;;;;;5.32;0.90;;;;;;;6.09;92.20;101142.00;7398478;19;19919;-71
2023/12/30 09:56:56;;;;;;;8.20;1.40;;;;;;;6.14;91.83;101121.03;7398652;19;20012;-71
2023/12/30 09:59:26;;;;;;;7.15;1.20;;;;;;;6.18;91.84;101126.91;7398654;19;19918;-71
2023/12/30 10:01:56;;;;;;;4.25;0.85;;;;;;;6.23;91.40;101122.84;7398460;19;19946;-71
2023/12/30 10:04:25;;;;;;;8.00;1.30;;;;;;;6.27;91.24;101139.44;7398176;19;20328;-71
2023/12/30 10:06:58;;;;;;;4.43;1.20;;;;;;;6.31;90.92;101127.47;7398640;19;19926;-71
2023/12/30 10:09:50;;;;;;;10.52;2.08;;;;;;;6.35;90.74;101145.78;7395774;19;19921;-70
2023/12/30 10:12:19;;;;;;;13.02;2.78;;;;;;;6.42;90.44;101135.34;7397484;19;19922;-70
2023/12/30 10:14:48;;;;;;;17.15;3.53;;;;;;;6.47;90.37;101148.31;7398199;19;19978;-71
2023/12/30 10:17:17;;;;;;;5.70;1.40;;;;;;;6.50;89.88;101142.66;7401433;19;20291;-71
2023/12/30 10:19:45;;;;;;;8.02;1.70;;;;;;;6.55;89.92;101146.59;7404031;19;19922;-71
2023/12/30 10:22:16;;;;;;;3.60;0.95;;;;;;;6.60;89.39;101130.09;7403492;19;19923;-71
2023/12/30 10:24:45;;;;;;;8.50;1.08;;;;;;;6.66;89.37;101137.53;7402849;19;19918;-71
2023/12/30 10:27:14;;;;;;;7.32;1.00;;;;;;;6.69;89.46;101137.25;7404254;19;19914;-71
2023/12/30 10:29:42;;;;;;;7.07;0.98;;;;;;;6.73;89.13;101141.34;7404227;19;20253;-70
2023/12/30 10:32:11;;;;;;;5.75;1.63;;;;;;;6.77;88.82;101146.22;7403586;19;19930;-72
2023/12/30 10:34:41;;;;;;;12.63;1.55;;;;;;;6.82;88.04;101151.16;7404440;19;19918;-71
2023/12/30 10:37:10;;;;;;;11.50;1.30;;;;;;;6.89;87.82;101146.06;7403982;19;20356;-71
2023/12/30 10:39:44;;;;;;;5.38;1.08;;;;;;;6.92;87.04;101149.28;7403051;19;19910;-72
2023/12/30 10:42:13;;;;;;;7.15;1.38;;;;;;;6.96;87.11;101156.03;7403212;19;19926;-72
2023/12/30 10:44:42;;;;;;;5.38;1.08;;;;;;;7.02;86.45;101152.78;7403096;19;19918;-71
2023/12/30 10:47:16;;;;;;;9.23;1.30;;;;;;;7.06;86.56;101140.78;7403404;19;19918;-71
2023/12/30 10:49:50;;;;;;;7.90;1.30;;;;;;;7.10;87.04;101154.72;7402952;19;19926;-72
2023/12/30 10:52:26;;;;;;;7.57;1.23;;;;;;;7.11;86.59;101143.88;7403022;19;19910;-72
2023/12/30 10:55:12;;;;;;;6.80;0.80;;;;;;;7.13;86.39;101146.38;7402818;19;20308;-71
2023/12/30 10:57:48;;;;;;;4.63;1.10;;;;;;;7.15;86.41;101152.44;7402894;19;19953;-71
2023/12/30 11:00:21;;;;;;;5.57;1.10;;;;;;;7.21;86.23;101160.72;7402872;19;19923;-72
2023/12/30 11:02:50;;;;;;;5.25;1.02;;;;;;;7.27;85.94;101157.47;7402454;19;19914;-71
2023/12/30 11:05:42;;;;;;;;;;;;;;;7.24;85.17;101165.81;7404104;19;19918;-72
2023/12/30 11:08:11;;;;;;;6.03;1.00;;;;;;;7.32;85.64;101186.50;7402355;19;20288;-72
2023/12/30 11:10:42;;;;;;;5.10;1.05;;;;;;;7.35;85.00;101178.16;7402887;19;19910;-71
2023/12/30 11:13:11;;;;;;;10.30;1.50;;;;;;;7.40;85.08;101173.19;7402913;19;19967;-71
2023/12/30 11:15:41;;;;;;;8.05;1.00;;;;;;;7.44;85.18;101166.53;7402776;19;19922;-71
2023/12/30 11:18:13;;;;;;;7.25;1.13;;;;;;;7.46;85.08;101172.63;7402501;19;19919;-71
2023/12/30 11:20:47;;;;;;;8.75;1.20;;;;;;;7.47;85.02;101170.75;7401613;19;19926;-71
2023/12/30 11:23:17;;;;;;;5.82;0.85;;;;;;;7.48;84.94;101183.16;7402181;19;20352;-72
2023/12/30 11:26:15;;;;;;;6.43;0.80;;;;;;;7.48;85.14;101161.72;7400516;19;20341;-71
2023/12/30 11:28:46;;;;;;;8.73;2.08;;;;;;;7.48;85.44;101167.09;7401268;19;19943;-71
2023/12/30 11:31:14;;;;;;;4.25;0.63;;;;;;;7.46;85.29;101167.25;7402350;19;19951;-72
2023/12/30 11:33:43;;;;;;;5.45;1.00;;;;;;;7.45;85.33;101162.88;7401577;19;19946;-71
2023/12/30 11:36:12;;;;;;;6.97;1.33;;;;;;;7.45;85.41;101178.97;7402473;19;19922;-72
2023/12/30 11:38:46;;;;;;;5.97;1.13;;;;;;;7.43;85.47;101155.97;7401087;19;20248;-71
2023/12/30 11:41:17;;;;;;;6.45;1.38;;;;;;;7.45;85.26;101164.72;7401240;19;19923;-71
2023/12/30 11:43:46;;;;;;;9.40;2.05;;;;;;;7.46;85.36;101153.84;7402211;19;19923;-71
2023/12/30 11:46:15;;;;;;;7.15;1.00;;;;;;;7.50;85.62;101159.75;7401670;19;20384;-72
2023/12/30 11:48:44;;;;;;;10.88;4.53;;;;;;;7.54;85.44;101166.50;7402241;19;19928;-72